Annadale, South Africa
Current Conditions -  °F | °C
As of 3:00 PM on Thursday 18 Dec 2014 (Local Time) from FAPP Reporting Station
Broken Clouds Broken Clouds  
Wind Chill: 73°   Ceiling: 4500
Heat Index: 73°   Visibility: 6mi
Dew Point: 59°   Wind: 5mph
Humidity: 61%   Direction: 330°NNW
Pressure: 30"   Gusts: NA
Location:  23.88°S, 29.45°E
Report Text: FAPP 181300Z 33004KT 9999 BKN045 23/15 Q1016 NOSIG
Loading
Personal Weather Stations






























Interactive Weather Map New forecast layout! Learn more

10-Day Weather Forecast

Advertisements
Track Severe Weather on mobile